UDYZ/EVN METAR and TAF weather

Enter ICAO airport designator
Station Type Date Time Source
UDYZ METAR 2021/03/04 21:30 UTC NOAA

UDYZ 042130Z VRB01KT 9999 SCT046 06/M04 Q1016 R09/010070 NOSIG


Station Type Date Time Source
UDYZ Decoded METAR 2021/03/04 21:30 UTC NOAA

Station name not available
Mar 04, 2021 - 04:30 PM EST / 2021.03.04 2130 UTC
Wind: Variable at 1 MPH (1 KT):0
Visibility: greater than 7 mile(s):0
Sky conditions: partly cloudy
Temperature: 42 F (6 C)
Dew Point: 24 F (-4 C)
Relative Humidity: 48%
Pressure (altimeter): 30.00 in. Hg (1016 hPa)
ob: UDYZ 042130Z VRB01KT 9999 SCT046 06/M04 Q1016 R09/010070 NOSIG
cycle: 21

Station Type Date Time Source
UDYZ TAF 2021/03/04 18:00 UTC NOAA

TAF UDYZ 041705Z 0418/0518 07006KT 9999 SCT040
TEMPO 0418/0421 03016G26KT

Example: see airport list